Latest Weather Observations for Horsley Park

IDN60801

Issued at 8:02 pm EDT Sunday 26 March 2017 (issued every 30 minutes, with the page automatically refreshed every 10 minutes)

About weather observations | Map of weather stations | Latest weather observations for NSW | Other Formats
Station Details ID: 067119 Name: HORSLEY PARK EQUESTRIAN CENTRE AWS Lat: -33.85 Lon: 150.86 Height: 100.0 m
Data from the previous 72 hours. | See also: Recent months at Horsley Park
Date/Time
EDT
Temp
°C
App
Temp
°C
Dew
Point
°C
Rel
Hum
%
Delta-T
°C
Wind Press
QNH
hPa
Press
MSL
hPa
Rain since
9am
mm
Dir  Spd
km/h
Gust
km/h
Spd
kts
Gust
kts
26/08:00pm 22.3 23.4 18.9 81 2.2 E 11 19 6 10 - - 0.0
26/07:30pm 22.9 23.9 18.7 77 2.7 E 11 17 6 9 - - 0.0
26/07:00pm 23.4 24.7 18.5 74 3.1 E 9 15 5 8 - - 0.0
26/06:30pm 24.2 24.6 18.2 69 3.8 ESE 13 20 7 11 - - 0.0
26/06:00pm 25.3 25.3 18.0 64 4.6 E 15 20 8 11 - - 0.0
26/05:30pm 26.1 26.3 18.5 63 4.9 ESE 15 22 8 12 - - 0.0
26/05:00pm 27.0 28.0 19.4 63 4.9 E 13 22 7 12 - - 0.0
26/04:30pm 27.3 27.5 18.6 59 5.6 ESE 15 22 8 12 - - 0.0
26/04:00pm 28.3 30.4 17.2 51 7.0 SE 2 6 1 3 - - 0.0
26/03:30pm 28.8 31.3 17.3 49 7.3 CALM 0 2 0 1 - - 0.0
26/03:00pm 28.6 30.8 17.5 51 7.0 N 2 9 1 5 - - 0.0
26/02:30pm 28.2 30.6 17.1 51 7.0 CALM 0 6 0 3 - - 0.0
26/02:00pm 27.6 30.5 18.3 57 5.9 CALM 0 6 0 3 - - 0.0
26/01:30pm 26.9 28.4 17.7 57 5.8 NNE 6 11 3 6 - - 0.0
26/01:00pm 26.3 28.1 18.4 61 5.0 ENE 6 13 3 7 - - 0.0
26/12:30pm 25.2 27.6 17.1 60 5.0 CALM 0 0 0 0 - - 0.0
26/12:00pm 25.4 28.5 18.6 66 4.3 CALM 0 2 0 1 - - 0.0
26/11:30am 24.6 27.5 18.1 67 4.1 CALM 0 0 0 0 - - 0.0
26/11:00am 24.0 26.6 17.5 67 4.1 CALM 0 6 0 3 - - 0.0
26/10:30am 22.8 24.9 17.3 71 3.4 WNW 2 7 1 4 - - 0.0
26/10:00am 22.1 23.6 17.7 76 2.7 SW 6 9 3 5 - - 0.0
26/09:30am 21.0 23.2 17.4 80 2.2 WSW 2 6 1 3 - - 0.0
26/09:00am 20.2 22.0 17.4 84 1.7 W 4 7 2 4 - - 0.0
26/08:30am 19.3 20.6 17.1 87 1.3 SW 6 7 3 4 - - 0.0
26/08:00am 18.6 21.1 17.3 92 0.8 CALM 0 4 0 2 - - 0.0
26/07:30am 17.7 20.0 16.7 94 0.6 CALM 0 2 0 1 - - 0.0
26/07:00am 17.5 18.8 16.2 92 0.8 WSW 4 6 2 3 - - 0.0
26/06:30am 17.7 18.5 16.4 92 0.8 SW 7 9 4 5 - - 0.0
26/06:00am 17.9 19.0 16.6 92 0.8 SW 6 9 3 5 - - 0.0
26/05:30am 17.6 18.7 16.6 94 0.6 SW 6 9 3 5 - - 0.0
26/05:00am 17.8 19.7 16.8 94 0.6 SW 2 6 1 3 - - 0.0
26/04:30am 18.1 20.5 17.0 93 0.7 CALM 0 2 0 1 - - 0.0
26/04:00am 18.3 20.8 17.3 94 0.6 CALM 0 0 0 0 - - 0.0
26/03:30am 18.3 20.7 17.1 93 0.7 CALM 0 0 0 0 - - 0.0
26/03:00am 18.9 21.7 17.9 94 0.6 CALM 0 0 0 0 - - 0.0
26/02:30am 18.6 21.3 17.8 95 0.5 CALM 0 0 0 0 - - 0.0
26/02:00am 18.5 21.3 17.9 96 0.4 CALM 0 0 0 0 - - 0.0
26/01:30am 18.1 20.5 17.1 94 0.6 CALM 0 0 0 0 - - 0.0
26/01:00am 18.3 20.8 17.3 94 0.6 CALM 0 0 0 0 - - 0.0
26/12:30am 18.2 20.6 17.0 93 0.7 CALM 0 0 0 0 - - 0.0
26/12:00am 18.3 20.6 16.8 91 0.9 CALM 0 0 0 0 - - 0.0
 
Date/Time
EDT
Temp
°C
App
Temp
°C
Dew
Point
°C
Rel
Hum
%
Delta-T
°C
Wind Press
QNH
hPa
Press
MSL
hPa
Rain since
9am
mm
Dir  Spd
km/h
Gust
km/h
Spd
kts
Gust
kts
25/11:30pm 18.8 21.2 17.1 90 1.0 CALM 0 0 0 0 - - 0.0
25/11:00pm 19.2 21.7 17.2 88 1.2 CALM 0 0 0 0 - - 0.0
25/10:30pm 19.4 21.8 17.0 86 1.5 CALM 0 0 0 0 - - 0.0
25/10:00pm 19.8 22.4 17.6 87 1.4 CALM 0 0 0 0 - - 0.0
25/09:30pm 20.2 22.8 17.4 84 1.7 CALM 0 0 0 0 - - 0.0
25/09:00pm 20.7 23.1 17.1 80 2.2 CALM 0 0 0 0 - - 0.0
25/08:30pm 20.9 23.4 17.3 80 2.2 CALM 0 0 0 0 - - 0.0
25/08:00pm 21.0 23.4 17.0 78 2.4 CALM 0 2 0 1 - - 0.0
25/07:30pm 21.0 23.4 17.0 78 2.4 CALM 0 0 0 0 - - 0.0
25/07:00pm 21.4 23.0 17.0 76 2.7 NE 4 9 2 5 - - 0.0
25/06:30pm 21.7 23.2 16.6 73 3.1 E 4 7 2 4 - - 0.0
25/06:00pm 21.9 22.7 16.4 71 3.3 E 7 13 4 7 - - 0.0
25/05:30pm 22.2 24.6 16.9 72 3.3 CALM 0 0 0 0 - - 0.0
25/05:00pm 22.5 23.8 16.1 67 3.9 SE 4 9 2 5 - - 0.0
25/04:30pm 23.1 25.2 16.2 65 4.2 CALM 0 4 0 2 - - 0.0
25/04:00pm 23.1 25.3 16.4 66 4.1 CALM 0 2 0 1 - - 0.0
25/03:30pm 22.7 23.8 15.5 64 4.3 NNE 4 7 2 4 - - 0.0
25/03:00pm 22.9 22.9 15.2 62 4.6 NNW 9 15 5 8 - - 0.0
25/02:30pm 23.1 22.7 15.2 61 4.7 N 11 20 6 11 - - 0.0
25/02:00pm 22.6 22.2 15.2 63 4.4 N 11 17 6 9 - - 0.0
25/01:30pm 22.6 22.2 15.2 63 4.4 N 11 17 6 9 - - 0.0
25/01:00pm 22.5 23.2 16.1 67 3.9 N 7 13 4 7 - - 0.0
25/12:30pm 21.9 22.4 15.0 65 4.1 N 6 9 3 5 - - 0.0
25/12:00pm 22.1 22.3 14.7 63 4.4 N 7 13 4 7 - - 0.0
25/11:30am 22.3 22.8 15.6 66 4.0 NNW 7 15 4 8 - - 0.0
25/11:00am 21.6 22.4 14.7 65 4.1 NNE 4 11 2 6 - - 0.0
25/10:30am 21.7 22.2 15.1 66 3.9 N 6 9 3 5 - - 0.0
25/10:00am 21.2 21.8 15.3 69 3.5 NW 6 13 3 7 - - 0.0
25/09:30am 20.6 21.3 15.6 73 3.0 WNW 6 9 3 5 - - 0.0
25/09:00am 20.3 22.3 15.9 76 2.6 CALM 0 6 0 3 - - 0.6
25/08:30am 19.1 21.1 16.0 82 1.9 CALM 0 0 0 0 - - 0.6
25/08:00am 17.8 20.1 16.7 93 0.7 CALM 0 0 0 0 - - 0.6
25/07:30am 17.1 19.0 15.8 92 0.8 CALM 0 0 0 0 - - 0.6
25/07:00am 17.5 19.4 15.8 90 1.0 CALM 0 0 0 0 - - 0.6
25/06:30am 17.8 19.8 16.0 89 1.1 CALM 0 0 0 0 - - 0.6
25/06:00am 18.1 19.3 15.9 87 1.3 SW 4 6 2 3 - - 0.6
25/05:30am 18.1 20.2 16.3 89 1.1 CALM 0 2 0 1 - - 0.6
25/05:00am 18.1 19.5 16.4 90 1.0 SW 4 6 2 3 - - 0.6
25/04:30am 18.0 19.7 16.3 90 1.0 WSW 2 6 1 3 - - 0.6
25/04:00am 18.0 19.5 16.7 92 0.8 W 4 7 2 4 - - 0.6
25/03:30am 18.1 20.1 17.0 93 0.7 WNW 2 6 1 3 - - 0.6
25/03:00am 18.2 20.2 17.0 93 0.7 W 2 4 1 2 - - 0.6
25/02:30am 18.1 20.1 17.0 93 0.7 WNW 2 4 1 2 - - 0.6
25/02:00am 17.9 19.7 16.4 91 0.9 SW 2 4 1 2 - - 0.6
25/01:30am 18.4 20.6 16.6 89 1.1 CALM 0 0 0 0 - - 0.6
25/01:00am 18.6 20.8 16.6 88 1.2 CALM 0 4 0 2 - - 0.6
25/12:30am 18.5 20.3 16.5 88 1.2 SW 2 4 1 2 - - 0.6
25/12:00am 18.6 20.8 16.4 87 1.3 CALM 0 0 0 0 - - 0.6
 
Date/Time
EDT
Temp
°C
App
Temp
°C
Dew
Point
°C
Rel
Hum
%
Delta-T
°C
Wind Press
QNH
hPa
Press
MSL
hPa
Rain since
9am
mm
Dir  Spd
km/h
Gust
km/h
Spd
kts
Gust
kts
24/11:30pm 18.4 19.5 16.6 89 1.1 SW 6 7 3 4 - - 0.6
24/11:00pm 18.2 20.6 16.9 92 0.8 CALM 0 0 0 0 - - 0.6
24/10:30pm 18.2 20.0 16.5 90 1.0 WSW 2 4 1 2 - - 0.6
24/10:00pm 18.5 20.5 16.1 86 1.4 CALM 0 0 0 0 - - 0.6
24/09:30pm 18.4 19.7 16.2 87 1.3 SSE 4 6 2 3 - - 0.6
24/09:00pm 18.2 19.5 16.2 88 1.2 SE 4 6 2 3 - - 0.6
24/08:30pm 18.3 19.3 16.3 88 1.2 ESE 6 7 3 4 - - 0.6
24/08:00pm 18.3 19.4 16.5 89 1.1 ESE 6 11 3 6 - - 0.6
24/07:30pm 18.7 18.7 16.3 86 1.4 SE 11 17 6 9 - - 0.4
24/07:00pm 19.3 19.8 15.6 79 2.2 ESE 7 13 4 7 - - 0.0
24/06:30pm 19.9 20.0 15.5 76 2.6 ESE 9 17 5 9 - - 0.0
24/06:00pm 20.3 19.3 15.7 75 2.7 ESE 15 22 8 12 - - 0.0
24/05:30pm 21.3 19.8 16.3 73 3.0 SE 19 28 10 15 - - 0.0
24/05:00pm 21.0 19.3 15.8 72 3.1 SE 19 32 10 17 - - 0.0
24/04:30pm 22.6 21.6 14.7 61 4.7 ESE 13 22 7 12 - - 0.0
24/04:00pm 23.4 22.6 15.2 60 4.9 SE 13 19 7 10 - - 0.0
24/03:30pm 23.3 21.7 15.1 60 4.9 SE 17 24 9 13 - - 0.0
24/03:00pm 23.6 22.8 16.1 62 4.6 ESE 15 24 8 13 - - 0.0
24/02:30pm 23.7 24.0 17.0 66 4.1 SE 11 20 6 11 - - 0.0
24/02:00pm 22.8 21.6 15.1 62 4.6 SE 15 22 8 12 - - 0.0
24/01:30pm 23.1 22.3 15.2 61 4.7 SE 13 20 7 11 - - 0.0
24/01:00pm 22.4 21.3 15.3 64 4.3 SE 15 24 8 13 - - 0.0
24/12:30pm 23.0 22.6 15.3 62 4.6 S 11 19 6 10 - - 0.0
24/12:00pm 23.1 23.4 16.9 68 3.8 S 11 17 6 9 - - 0.0
24/11:30am 22.9 23.1 16.7 68 3.8 S 11 19 6 10 - - 0.0
24/11:00am 22.0 21.1 15.8 68 3.7 S 15 19 8 10 - - 0.0
24/10:30am 21.8 21.4 16.1 70 3.4 S 13 20 7 11 - - 0.0
24/10:00am 21.4 21.8 16.4 73 3.0 S 9 15 5 8 - - 0.0
24/09:30am 20.9 21.3 16.3 75 2.8 SSW 9 15 5 8 - - 0.0
24/09:00am 19.6 20.4 16.4 82 1.9 SW 7 11 4 6 - - 6.4
24/08:30am 18.9 19.2 16.1 84 1.7 SW 9 15 5 8 - - 6.4
24/08:00am 18.7 19.1 16.3 86 1.4 SW 9 13 5 7 - - 6.4
24/07:30am 18.0 18.4 16.3 90 1.0 SW 9 13 5 7 - - 6.4
24/07:00am 17.9 18.7 16.4 91 0.9 SW 7 13 4 7 - - 6.4
24/06:30am 17.9 18.9 16.4 91 0.9 WSW 6 9 3 5 - - 6.4
24/06:00am 17.9 18.8 16.6 92 0.8 SW 7 11 4 6 - - 6.4
24/05:30am 17.7 19.2 16.7 94 0.6 SW 4 6 2 3 - - 6.4
24/05:00am 17.7 18.9 16.9 95 0.5 SW 6 9 3 5 - - 6.4
24/04:30am 17.7 18.3 16.9 95 0.5 WSW 9 13 5 7 - - 6.4
24/04:00am 17.6 18.5 16.6 94 0.6 SW 7 9 4 5 - - 6.0
24/03:30am 17.7 18.2 16.6 93 0.7 SW 9 15 5 8 - - 6.0
24/03:00am 17.8 18.7 16.5 92 0.8 WSW 7 11 4 6 - - 6.0
24/02:30am 17.9 19.0 16.6 92 0.8 WSW 6 9 3 5 - - 6.0
24/02:00am 17.7 18.5 16.4 92 0.8 SW 7 9 4 5 - - 6.0
24/01:30am 18.1 19.0 16.6 91 0.9 SW 7 11 4 6 - - 6.0
24/01:00am 18.1 19.1 16.4 90 1.0 SSW 6 7 3 4 - - 6.0
24/12:30am 18.3 19.4 16.6 90 1.0 S 6 13 3 7 - - 6.0
24/12:00am 18.4 19.1 17.1 92 0.8 SW 9 15 5 8 - - 6.0
 
Date/Time
EDT
Temp
°C
App
Temp
°C
Dew
Point
°C
Rel
Hum
%
Delta-T
°C
Wind Press
QNH
hPa
Press
MSL
hPa
Rain since
9am
mm
Dir  Spd
km/h
Gust
km/h
Spd
kts
Gust
kts
23/11:30pm 18.1 19.7 17.0 93 0.7 SSW 4 7 2 4 - - 6.0
23/11:00pm 18.4 19.9 17.6 95 0.5 SSW 6 11 3 6 - - 6.0
23/10:30pm 18.4 20.3 17.6 95 0.5 SSW 4 9 2 5 - - 6.0
23/10:00pm 18.5 20.0 17.7 95 0.5 SW 6 11 3 6 - - 6.0
23/09:30pm 18.5 19.8 17.5 94 0.6 S 7 9 4 5 - - 5.2
23/09:00pm 18.9 21.0 18.1 95 0.5 WSW 4 15 2 8 - - 4.4
23/08:30pm 19.1 22.0 18.3 95 0.5 CALM 0 0 0 0 - - 4.0

Other Formats:

Comma delimited format used in spreadsheet applications
http://www.bom.gov.au/fwo/IDN60801/IDN60801.94760.axf

JavaScript Object Notation format (JSON) in row-major order
http://www.bom.gov.au/fwo/IDN60801/IDN60801.94760.json